createdAt,value
2022-10-04T00:00:33.566Z,2.30
2022-10-04T00:03:15.622Z,3.23
2022-10-04T00:05:48.817Z,1.52
2022-10-04T00:08:24.620Z,1.63
2022-10-04T00:11:06.912Z,1.33
2022-10-04T00:13:39.231Z,2.00
2022-10-04T00:16:10.754Z,2.00
2022-10-04T00:18:42.636Z,2.80
2022-10-04T00:21:12.490Z,1.72
2022-10-04T00:23:45.125Z,1.53
2022-10-04T00:26:18.158Z,1.55
2022-10-04T00:28:49.997Z,1.37
2022-10-04T00:31:22.729Z,1.17
2022-10-04T00:34:01.233Z,1.97
2022-10-04T00:36:34.055Z,1.40
2022-10-04T00:39:11.011Z,1.33
2022-10-04T00:41:43.783Z,1.72
2022-10-04T00:44:16.630Z,3.67
2022-10-04T00:46:48.348Z,1.00
2022-10-04T00:49:21.182Z,1.67
2022-10-04T00:52:06.000Z,2.37
2022-10-04T00:54:40.483Z,1.23
2022-10-04T00:57:16.155Z,2.17
2022-10-04T00:59:49.448Z,2.60
2022-10-04T01:02:26.335Z,1.53
2022-10-04T01:05:07.944Z,1.57
2022-10-04T01:07:41.058Z,2.02
2022-10-04T01:10:22.949Z,1.13
2022-10-04T01:13:22.419Z,2.63
2022-10-04T01:15:55.608Z,1.35
2022-10-04T01:18:29.225Z,1.73
2022-10-04T01:21:07.678Z,2.00
2022-10-04T01:23:51.834Z,1.70
2022-10-04T01:26:33.685Z,2.27
2022-10-04T01:29:09.212Z,1.13
2022-10-04T01:31:42.413Z,2.00
2022-10-04T01:34:18.180Z,1.65
2022-10-04T01:36:49.279Z,2.30
2022-10-04T01:39:20.893Z,2.27
2022-10-04T01:42:08.658Z,1.67
2022-10-04T01:44:41.773Z,1.75
2022-10-04T01:47:18.207Z,2.93
2022-10-04T01:49:49.723Z,2.07
2022-10-04T01:52:22.606Z,1.60
2022-10-04T01:54:55.439Z,1.60
2022-10-04T01:57:30.719Z,1.90
2022-10-04T02:00:09.542Z,1.90
2022-10-04T02:02:45.120Z,1.17
2022-10-04T02:05:18.005Z,0.98
2022-10-04T02:07:50.029Z,1.40
2022-10-04T02:10:22.109Z,1.63
2022-10-04T02:12:54.786Z,1.43
2022-10-04T02:15:26.909Z,1.22
2022-10-04T02:17:58.832Z,1.57
2022-10-04T02:20:29.150Z,1.82
2022-10-04T02:23:03.410Z,1.22
2022-10-04T02:25:33.776Z,2.60
2022-10-04T02:28:04.840Z,3.40
2022-10-04T02:30:39.738Z,3.07
2022-10-04T02:33:10.611Z,2.47
2022-10-04T02:35:46.110Z,2.35
2022-10-04T02:38:22.363Z,3.37
2022-10-04T02:41:07.127Z,2.63
2022-10-04T02:43:45.862Z,3.57
2022-10-04T02:46:24.441Z,2.13
2022-10-04T02:49:00.114Z,2.43
2022-10-04T02:51:53.845Z,1.57
2022-10-04T02:54:29.452Z,2.23
2022-10-04T02:57:01.465Z,2.80
2022-10-04T02:59:35.516Z,1.95
2022-10-04T03:02:09.494Z,1.72
2022-10-04T03:04:41.098Z,1.17
2022-10-04T03:07:11.072Z,1.70
2022-10-04T03:09:42.024Z,0.93
2022-10-04T03:12:13.722Z,4.75
2022-10-04T03:17:14.533Z,1.17
2022-10-04T03:19:47.004Z,3.37
2022-10-04T03:22:17.720Z,1.43
2022-10-04T03:24:50.091Z,2.12
2022-10-04T03:27:22.625Z,1.50
2022-10-04T03:29:58.209Z,2.23
2022-10-04T03:32:24.378Z,2.50
2022-10-04T03:34:59.122Z,1.20
2022-10-04T03:37:32.245Z,3.20
2022-10-04T03:40:04.707Z,5.70
2022-10-04T03:42:37.322Z,1.00
2022-10-04T03:45:15.768Z,1.77
2022-10-04T03:47:48.569Z,1.50
2022-10-04T03:50:24.708Z,2.43
2022-10-04T03:52:57.896Z,1.37
2022-10-04T03:55:33.576Z,1.77
2022-10-04T03:58:03.813Z,3.75
2022-10-04T04:00:34.993Z,2.23
2022-10-04T04:03:08.211Z,1.70
2022-10-04T04:05:44.769Z,2.53
2022-10-04T04:08:29.129Z,1.47
2022-10-04T04:11:02.892Z,1.40
2022-10-04T04:13:48.526Z,2.17
2022-10-04T04:16:21.561Z,1.70
2022-10-04T04:18:53.330Z,0.80
2022-10-04T04:21:25.735Z,3.37
2022-10-04T04:23:58.640Z,2.07
2022-10-04T04:26:40.841Z,2.27
2022-10-04T04:29:13.574Z,1.30
2022-10-04T04:31:55.321Z,2.13
2022-10-04T04:34:29.851Z,4.40
2022-10-04T04:37:02.082Z,3.87
2022-10-04T04:39:44.249Z,1.43
2022-10-04T04:42:21.210Z,2.55
2022-10-04T04:44:54.072Z,1.23
2022-10-04T04:47:29.757Z,1.23
2022-10-04T04:50:02.110Z,1.53
2022-10-04T04:52:33.932Z,2.50
2022-10-04T04:55:05.241Z,2.37
2022-10-04T04:57:35.299Z,1.75
2022-10-04T05:00:05.519Z,3.87
2022-10-04T05:02:38.032Z,4.50
2022-10-04T05:05:31.741Z,3.63
2022-10-04T05:08:28.681Z,1.07
2022-10-04T05:11:11.220Z,2.80
2022-10-04T05:13:50.025Z,2.03
2022-10-04T05:16:25.723Z,2.30
2022-10-04T05:19:01.490Z,2.40
2022-10-04T05:21:39.706Z,3.20
2022-10-04T05:24:16.570Z,1.77
2022-10-04T05:26:47.940Z,2.77
2022-10-04T05:29:20.519Z,1.70
2022-10-04T05:32:13.631Z,2.07
2022-10-04T05:34:47.027Z,1.57
2022-10-04T05:37:20.568Z,2.13
2022-10-04T05:40:09.192Z,1.97
2022-10-04T05:42:43.830Z,2.10
2022-10-04T05:45:17.506Z,3.13
2022-10-04T05:47:50.310Z,2.17
2022-10-04T05:50:35.091Z,2.17
2022-10-04T05:53:35.736Z,1.67
2022-10-04T05:56:15.181Z,2.90
2022-10-04T05:59:03.221Z,1.93
2022-10-04T06:01:38.914Z,1.85
2022-10-04T06:04:23.134Z,1.23
2022-10-04T06:06:58.745Z,2.23
2022-10-04T06:09:52.250Z,2.43
2022-10-04T06:12:34.047Z,1.60
2022-10-04T06:15:20.165Z,1.60
2022-10-04T06:18:02.212Z,2.93
2022-10-04T06:20:35.045Z,2.23
2022-10-04T06:23:07.887Z,0.97
2022-10-04T06:25:43.483Z,1.30
2022-10-04T06:28:18.930Z,1.33
2022-10-04T06:30:54.740Z,3.40
2022-10-04T06:33:30.618Z,1.37
2022-10-04T06:36:29.036Z,1.40
2022-10-04T06:39:07.961Z,1.72
2022-10-04T06:41:43.990Z,2.70
2022-10-04T06:44:46.269Z,1.50
2022-10-04T06:47:26.081Z,0.90
2022-10-04T06:50:15.675Z,1.10
2022-10-04T06:52:51.033Z,1.90
2022-10-04T06:55:33.201Z,2.83
2022-10-04T06:58:29.441Z,1.17
2022-10-04T07:01:02.291Z,1.43
2022-10-04T07:03:56.297Z,1.73
2022-10-04T07:06:29.133Z,1.30
2022-10-04T07:09:02.649Z,2.37
2022-10-04T07:11:35.797Z,2.30
2022-10-04T07:14:18.224Z,3.17
2022-10-04T07:16:55.370Z,2.60
2022-10-04T07:19:39.657Z,1.15
2022-10-04T07:22:12.297Z,3.67
2022-10-04T07:24:54.209Z,2.57
2022-10-04T07:28:17.840Z,2.40
2022-10-04T07:31:06.357Z,1.93
2022-10-04T07:33:39.825Z,2.17
2022-10-04T07:36:12.377Z,1.33
2022-10-04T07:38:54.235Z,2.30
2022-10-04T07:41:29.753Z,0.93
2022-10-04T07:44:02.586Z,2.33
2022-10-04T07:46:47.719Z,3.00
2022-10-04T07:49:19.801Z,1.60
2022-10-04T07:52:04.956Z,3.87
2022-10-04T07:54:40.193Z,2.43
2022-10-04T07:57:18.534Z,1.15
2022-10-04T07:59:51.373Z,2.00
2022-10-04T08:02:27.716Z,2.30
2022-10-04T08:05:10.633Z,6.40
2022-10-04T08:08:02.994Z,1.13
2022-10-04T08:10:57.442Z,1.43
2022-10-04T08:13:46.010Z,1.80
2022-10-04T08:16:18.871Z,1.17
2022-10-04T08:18:54.442Z,3.93
2022-10-04T08:21:31.870Z,1.22
2022-10-04T08:24:07.413Z,1.27
2022-10-04T08:26:59.699Z,1.80
2022-10-04T08:29:47.224Z,1.10
2022-10-04T08:32:36.263Z,1.30
2022-10-04T08:35:32.738Z,0.83
2022-10-04T08:38:36.333Z,0.70
2022-10-04T08:41:30.467Z,2.03
2022-10-04T08:44:18.590Z,0.80
2022-10-04T08:46:59.117Z,1.67
2022-10-04T08:49:59.128Z,2.47
2022-10-04T08:52:38.204Z,1.30
2022-10-04T08:55:37.430Z,1.43
2022-10-04T08:58:13.138Z,1.33
2022-10-04T09:01:03.269Z,1.50
2022-10-04T09:03:45.401Z,1.12
2022-10-04T09:06:27.256Z,1.43
2022-10-04T09:09:09.012Z,5.97
2022-10-04T09:11:44.466Z,1.10
2022-10-04T09:14:38.867Z,1.73
2022-10-04T09:17:23.244Z,2.73
2022-10-04T09:20:37.410Z,0.90
2022-10-04T09:23:06.394Z,2.60
2022-10-04T09:25:58.762Z,1.67
2022-10-04T09:28:49.997Z,1.30
2022-10-04T09:31:31.976Z,0.93
2022-10-04T09:34:10.909Z,0.85
2022-10-04T09:36:46.979Z,0.63
2022-10-04T09:39:34.897Z,1.70
2022-10-04T09:42:27.045Z,1.50
2022-10-04T09:45:09.627Z,2.37
2022-10-04T09:47:50.245Z,0.50
2022-10-04T09:50:42.591Z,1.23
2022-10-04T09:53:41.231Z,1.50
2022-10-04T09:56:34.880Z,0.67
2022-10-04T09:59:28.315Z,0.53
2022-10-04T10:02:20.310Z,1.20
2022-10-04T10:05:15.808Z,1.00
2022-10-04T10:08:08.514Z,1.10
2022-10-04T10:11:07.615Z,2.13
2022-10-04T10:14:15.678Z,1.33
2022-10-04T10:17:03.577Z,2.63
2022-10-04T10:20:00.183Z,1.27
2022-10-04T10:23:06.258Z,1.73
2022-10-04T10:25:56.252Z,1.13
2022-10-04T10:28:48.858Z,1.03
2022-10-04T10:31:47.899Z,1.67
2022-10-04T10:34:53.421Z,2.05
2022-10-04T10:37:37.549Z,0.47
2022-10-04T10:40:24.785Z,2.25
2022-10-04T10:43:09.403Z,0.83
2022-10-04T10:46:18.267Z,2.00
2022-10-04T10:49:05.809Z,0.50
2022-10-04T10:52:04.189Z,0.53
2022-10-04T10:54:42.758Z,1.23
2022-10-04T10:57:15.587Z,0.88
2022-10-04T10:59:57.177Z,1.13
2022-10-04T11:03:13.173Z,0.63
2022-10-04T11:06:02.592Z,1.35
2022-10-04T11:08:56.494Z,1.60
2022-10-04T11:11:48.382Z,1.30
2022-10-04T11:14:33.335Z,2.30
2022-10-04T11:17:36.377Z,0.37
2022-10-04T11:20:34.077Z,0.60
2022-10-04T11:23:12.994Z,0.40
2022-10-04T11:26:03.130Z,0.85
2022-10-04T11:28:52.398Z,1.43
2022-10-04T11:31:34.185Z,1.10
2022-10-04T11:34:19.475Z,0.45
2022-10-04T11:37:18.762Z,1.23
2022-10-04T11:40:21.822Z,1.33
2022-10-04T11:43:15.975Z,1.20
2022-10-04T11:46:09.890Z,1.10
2022-10-04T11:48:59.308Z,0.78
2022-10-04T11:51:57.583Z,1.07
2022-10-04T11:55:00.435Z,1.10
2022-10-04T11:58:02.614Z,1.77
2022-10-04T12:00:53.478Z,1.17
2022-10-04T12:03:40.411Z,0.47
2022-10-04T12:06:37.282Z,1.13
2022-10-04T12:09:22.296Z,1.00
2022-10-04T12:12:25.006Z,1.47
2022-10-04T12:14:57.906Z,1.50
2022-10-04T12:17:47.456Z,0.68
2022-10-04T12:20:36.400Z,0.77
2022-10-04T12:23:25.017Z,0.40
2022-10-04T12:26:30.888Z,0.57
2022-10-04T12:29:18.720Z,0.35
2022-10-04T12:31:53.342Z,0.80
2022-10-04T12:34:32.051Z,0.53
2022-10-04T12:37:19.570Z,0.80
2022-10-04T12:40:24.877Z,0.20
2022-10-04T12:43:12.621Z,1.97
2022-10-04T12:46:09.909Z,0.30
2022-10-04T12:49:07.071Z,0.70
2022-10-04T12:51:45.517Z,0.63
2022-10-04T12:54:31.981Z,0.50
2022-10-04T12:57:32.295Z,4.83
2022-10-04T13:00:25.711Z,0.43
2022-10-04T13:02:58.550Z,0.43
2022-10-04T13:05:43.255Z,0.30
2022-10-04T13:08:34.225Z,0.50
2022-10-04T13:11:25.183Z,0.65
2022-10-04T13:14:13.755Z,0.55
2022-10-04T13:20:17.830Z,0.70
2022-10-04T13:22:58.333Z,0.20
2022-10-04T13:25:42.346Z,1.10
2022-10-04T13:28:36.197Z,0.43
2022-10-04T13:31:25.050Z,1.05
2022-10-04T13:33:58.145Z,0.30
2022-10-04T13:36:54.235Z,1.12
2022-10-04T13:39:26.855Z,0.27
2022-10-04T13:42:11.470Z,0.40
2022-10-04T13:45:08.042Z,2.65
2022-10-04T13:48:13.682Z,0.80
2022-10-04T13:51:02.938Z,0.30
2022-10-04T13:54:05.868Z,0.78
2022-10-04T13:57:08.027Z,0.50
2022-10-04T13:59:52.707Z,1.10
2022-10-04T14:02:46.693Z,0.90
2022-10-04T14:05:28.524Z,1.30
2022-10-04T14:08:17.276Z,0.17
2022-10-04T14:10:55.975Z,1.03
2022-10-04T14:13:34.302Z,0.97
2022-10-04T14:16:22.255Z,0.60
2022-10-04T14:19:12.005Z,0.40
2022-10-04T14:21:54.186Z,1.12
2022-10-04T14:24:38.959Z,0.57
2022-10-04T14:27:29.518Z,0.37
2022-10-04T14:30:23.291Z,1.53
2022-10-04T14:33:11.307Z,0.30
2022-10-04T14:36:08.283Z,0.20
2022-10-04T14:38:41.105Z,1.90
2022-10-04T14:41:39.116Z,1.40
2022-10-04T14:44:28.859Z,0.60
2022-10-04T14:47:11.800Z,0.57
2022-10-04T14:50:05.144Z,1.23
2022-10-04T14:52:38.362Z,0.62
2022-10-04T14:55:26.229Z,0.70
2022-10-04T14:58:07.373Z,1.10
2022-10-04T15:01:06.502Z,0.42
2022-10-04T15:04:02.143Z,0.93
2022-10-04T15:06:45.751Z,0.97
2022-10-04T15:09:18.574Z,1.03
2022-10-04T15:12:29.554Z,0.47
2022-10-04T15:14:42.107Z,0.80
2022-10-04T15:17:14.732Z,0.63
2022-10-04T15:19:54.176Z,0.80
2022-10-04T15:22:30.421Z,0.70
2022-10-04T15:25:00.708Z,0.93
2022-10-04T15:27:36.220Z,1.50
2022-10-04T15:30:15.596Z,1.20
2022-10-04T15:33:09.252Z,0.70
2022-10-04T15:36:00.258Z,0.37
2022-10-04T15:38:47.993Z,0.90
2022-10-04T15:41:39.210Z,1.60
2022-10-04T15:47:18.658Z,1.22
2022-10-04T15:50:24.960Z,0.90
2022-10-04T15:53:06.743Z,1.37
2022-10-04T15:55:39.573Z,1.97
2022-10-04T15:58:17.875Z,1.80
2022-10-04T16:01:09.561Z,0.97
2022-10-04T16:03:54.410Z,0.53
2022-10-04T16:06:32.926Z,0.50
2022-10-04T16:09:17.859Z,0.77
2022-10-04T16:12:09.987Z,1.20
2022-10-04T16:14:58.715Z,1.50
2022-10-04T16:17:37.466Z,1.00
2022-10-04T16:20:28.623Z,0.80
2022-10-04T16:23:27.866Z,1.62
2022-10-04T16:26:06.731Z,2.15
2022-10-04T16:28:46.896Z,1.93
2022-10-04T16:31:28.990Z,1.37
2022-10-04T16:34:20.981Z,1.93
2022-10-04T16:36:53.884Z,3.20
2022-10-04T16:39:59.875Z,2.20
2022-10-04T16:42:38.266Z,0.80
2022-10-04T16:45:11.806Z,3.13
2022-10-04T16:47:50.748Z,1.20
2022-10-04T16:50:51.871Z,1.20
2022-10-04T16:53:41.228Z,2.43
2022-10-04T16:56:17.804Z,1.70
2022-10-04T16:59:01.907Z,2.13
2022-10-04T17:01:55.224Z,1.07
2022-10-04T17:04:39.426Z,1.30
2022-10-04T17:07:21.400Z,3.03
2022-10-04T17:09:54.217Z,0.97
2022-10-04T17:12:27.233Z,1.10
2022-10-04T17:14:59.611Z,1.03
2022-10-04T17:17:38.014Z,1.23
2022-10-04T17:20:22.509Z,1.27
2022-10-04T17:22:57.992Z,1.97
2022-10-04T17:25:47.118Z,0.90
2022-10-04T17:28:31.340Z,1.60
2022-10-04T17:31:19.442Z,1.10
2022-10-04T17:34:08.643Z,1.50
2022-10-04T17:36:41.006Z,1.30
2022-10-04T17:39:35.941Z,1.33
2022-10-04T17:42:29.055Z,1.37
2022-10-04T17:45:19.643Z,1.63
2022-10-04T17:48:28.126Z,2.87
2022-10-04T17:51:33.760Z,2.15
2022-10-04T17:54:23.993Z,2.25
2022-10-04T17:57:05.352Z,2.70
2022-10-04T17:59:50.219Z,2.97
2022-10-04T18:02:22.873Z,2.93
2022-10-04T18:04:56.701Z,2.87
2022-10-04T18:07:29.514Z,2.30
2022-10-04T18:10:03.553Z,2.07
2022-10-04T18:12:48.020Z,2.37
2022-10-04T18:15:41.675Z,3.37
2022-10-04T18:18:23.048Z,2.40
2022-10-04T18:20:58.942Z,2.50
2022-10-04T18:23:37.040Z,2.63
2022-10-04T18:26:17.851Z,2.50
2022-10-04T18:28:50.220Z,2.85
2022-10-04T18:31:34.854Z,2.40
2022-10-04T18:34:29.896Z,4.17
2022-10-04T18:37:08.849Z,2.83
2022-10-04T18:39:55.423Z,4.13
2022-10-04T18:42:25.052Z,2.77
2022-10-04T18:45:00.684Z,3.33
2022-10-04T18:47:40.889Z,2.60
2022-10-04T18:50:19.898Z,5.67
2022-10-04T18:53:13.721Z,2.97
2022-10-04T18:55:46.551Z,3.27
2022-10-04T18:58:49.527Z,2.57
2022-10-04T19:01:44.720Z,2.23
2022-10-04T19:04:17.568Z,2.52
2022-10-04T19:06:48.599Z,2.70
2022-10-04T19:09:28.552Z,2.93
2022-10-04T19:12:15.981Z,3.53
2022-10-04T19:14:58.058Z,3.17
2022-10-04T19:17:56.573Z,4.67
2022-10-04T19:20:32.097Z,2.87
2022-10-04T19:23:15.468Z,3.27
2022-10-04T19:26:16.278Z,3.80
2022-10-04T19:28:25.205Z,3.67
2022-10-04T19:31:26.256Z,3.98
2022-10-04T19:34:01.826Z,3.60
2022-10-04T19:36:41.966Z,4.13
2022-10-04T19:39:23.307Z,3.47
2022-10-04T19:42:14.023Z,3.50
2022-10-04T19:45:10.601Z,4.10
2022-10-04T19:47:58.613Z,5.07
2022-10-04T19:50:42.760Z,4.23
2022-10-04T19:53:20.921Z,3.72
2022-10-04T19:55:59.298Z,3.80
2022-10-04T19:58:38.944Z,5.33
2022-10-04T20:01:16.969Z,6.20
2022-10-04T20:03:46.683Z,5.03
2022-10-04T20:06:24.951Z,4.03
2022-10-04T20:09:02.558Z,5.63
2022-10-04T20:11:42.773Z,6.40
2022-10-04T20:14:22.189Z,4.77
2022-10-04T20:16:55.159Z,4.70
2022-10-04T20:19:34.133Z,4.83
2022-10-04T20:22:13.178Z,4.43
2022-10-04T20:24:49.491Z,3.97
2022-10-04T20:27:33.146Z,4.27
2022-10-04T20:30:07.650Z,5.30
2022-10-04T20:32:43.200Z,4.73
2022-10-04T20:35:15.462Z,5.23
2022-10-04T20:38:20.376Z,4.77
2022-10-04T20:40:46.359Z,6.30
2022-10-04T20:43:21.315Z,4.57
2022-10-04T20:45:55.307Z,4.83
2022-10-04T20:48:27.682Z,5.17
2022-10-04T20:50:58.474Z,4.60
2022-10-04T20:53:31.330Z,4.95
2022-10-04T20:56:26.665Z,4.40
2022-10-04T20:58:59.693Z,4.23
2022-10-04T21:01:38.232Z,4.63
2022-10-04T21:04:36.357Z,4.80
2022-10-04T21:07:11.589Z,5.60
2022-10-04T21:09:45.403Z,4.87
2022-10-04T21:12:38.993Z,5.87
2022-10-04T21:15:19.311Z,5.33
2022-10-04T21:18:04.268Z,6.07
2022-10-04T21:20:50.648Z,4.70
2022-10-04T21:23:33.577Z,6.13
2022-10-04T21:26:25.226Z,6.10
2022-10-04T21:28:57.827Z,4.92
2022-10-04T21:31:28.047Z,4.60
2022-10-04T21:33:57.803Z,5.87
2022-10-04T21:36:27.901Z,6.20
2022-10-04T21:38:57.716Z,6.73
2022-10-04T21:41:27.523Z,4.90
2022-10-04T21:43:58.468Z,5.03
2022-10-04T21:46:29.941Z,5.13
2022-10-04T21:48:59.860Z,4.50
2022-10-04T21:51:31.500Z,5.30
2022-10-04T21:54:01.570Z,5.40
2022-10-04T21:56:31.774Z,4.67
2022-10-04T21:59:02.408Z,3.67
2022-10-04T22:01:32.123Z,4.87
2022-10-04T22:04:02.025Z,5.60
2022-10-04T22:06:32.798Z,5.03
2022-10-04T22:09:03.270Z,5.57
2022-10-04T22:11:34.682Z,5.17
2022-10-04T22:14:04.573Z,5.90
2022-10-04T22:16:34.456Z,5.17
2022-10-04T22:19:04.705Z,5.20
2022-10-04T22:21:34.536Z,5.63
2022-10-04T22:24:05.380Z,5.47
2022-10-04T22:26:35.270Z,5.87
2022-10-04T22:29:09.039Z,6.40
2022-10-04T22:31:43.832Z,5.67
2022-10-04T22:36:41.435Z,5.73
2022-10-04T22:39:19.674Z,6.25
2022-10-04T22:41:57.301Z,6.60
2022-10-04T22:44:30.296Z,5.97
2022-10-04T22:47:02.046Z,5.70
2022-10-04T22:52:05.600Z,4.87
2022-10-04T22:54:36.435Z,5.63
2022-10-04T22:57:06.531Z,7.10
2022-10-04T22:59:42.035Z,6.23
2022-10-04T23:02:22.001Z,5.53
2022-10-04T23:04:54.505Z,5.40
2022-10-04T23:07:25.982Z,4.67
2022-10-04T23:09:55.794Z,5.73
2022-10-04T23:12:25.819Z,7.13
2022-10-04T23:14:56.100Z,6.12
2022-10-04T23:17:31.123Z,7.57
2022-10-04T23:20:03.971Z,6.37
2022-10-04T23:22:33.860Z,7.90
2022-10-04T23:25:05.362Z,7.50
2022-10-04T23:27:35.636Z,6.20
2022-10-04T23:30:09.723Z,7.28
2022-10-04T23:32:39.561Z,8.90
2022-10-04T23:35:12.268Z,8.00
2022-10-04T23:37:42.065Z,7.23
2022-10-04T23:40:13.807Z,7.90
2022-10-04T23:42:43.953Z,7.90
2022-10-04T23:45:22.584Z,8.73
2022-10-04T23:47:55.745Z,8.48
2022-10-04T23:50:34.706Z,7.67
2022-10-04T23:53:07.396Z,9.20
2022-10-04T23:55:40.297Z,9.50
2022-10-04T23:58:18.884Z,8.23
